sensor_id;sensor_type;location;lat;lon;timestamp;pressure;altitude;pressure_sealevel;temperature;humidity
73101;BME280;61288;53.446;-2.266;2022-12-29T00:00:10;98327.59;;;6.96;93.92
73101;BME280;61288;53.446;-2.266;2022-12-29T00:02:35;98332.41;;;7.01;93.20
73101;BME280;61288;53.446;-2.266;2022-12-29T00:05:01;98325.81;;;6.97;94.57
73101;BME280;61288;53.446;-2.266;2022-12-29T00:07:27;98328.78;;;6.90;95.72
73101;BME280;61288;53.446;-2.266;2022-12-29T00:09:52;98327.53;;;6.83;96.71
73101;BME280;61288;53.446;-2.266;2022-12-29T00:12:18;98328.81;;;6.76;98.49
73101;BME280;61288;53.446;-2.266;2022-12-29T00:14:43;98331.78;;;6.70;99.10
73101;BME280;61288;53.446;-2.266;2022-12-29T00:17:27;98317.56;;;6.64;100.00
73101;BME280;61288;53.446;-2.266;2022-12-29T00:19:53;98325.66;;;6.58;100.00
73101;BME280;61288;53.446;-2.266;2022-12-29T00:22:37;98331.63;;;6.58;99.58
73101;BME280;61288;53.446;-2.266;2022-12-29T00:25:21;98330.25;;;6.53;100.00
73101;BME280;61288;53.446;-2.266;2022-12-29T00:28:08;98339.94;;;6.49;100.00
73101;BME280;61288;53.446;-2.266;2022-12-29T00:30:52;98336.78;;;6.44;100.00
73101;BME280;61288;53.446;-2.266;2022-12-29T00:33:36;98338.00;;;6.38;100.00
73101;BME280;61288;53.446;-2.266;2022-12-29T00:38:59;98353.81;;;6.32;100.00
73101;BME280;61288;53.446;-2.266;2022-12-29T00:41:44;98353.91;;;6.30;100.00
73101;BME280;61288;53.446;-2.266;2022-12-29T00:44:28;98371.19;;;6.28;100.00
73101;BME280;61288;53.446;-2.266;2022-12-29T00:46:53;98382.28;;;6.29;100.00
73101;BME280;61288;53.446;-2.266;2022-12-29T00:49:19;98425.19;;;6.28;100.00
73101;BME280;61288;53.446;-2.266;2022-12-29T00:52:06;98418.47;;;6.26;100.00
73101;BME280;61288;53.446;-2.266;2022-12-29T00:54:36;98428.53;;;6.00;100.00
73101;BME280;61288;53.446;-2.266;2022-12-29T00:57:02;98425.00;;;5.86;100.00
73101;BME280;61288;53.446;-2.266;2022-12-29T00:59:29;98416.00;;;5.79;100.00
73101;BME280;61288;53.446;-2.266;2022-12-29T01:01:55;98428.38;;;5.72;100.00
73101;BME280;61288;53.446;-2.266;2022-12-29T01:04:23;98426.06;;;5.68;100.00
73101;BME280;61288;53.446;-2.266;2022-12-29T01:06:49;98434.78;;;5.65;100.00
73101;BME280;61288;53.446;-2.266;2022-12-29T01:09:16;98435.88;;;5.61;100.00
73101;BME280;61288;53.446;-2.266;2022-12-29T01:12:03;98429.16;;;5.58;100.00
73101;BME280;61288;53.446;-2.266;2022-12-29T01:14:29;98437.03;;;5.55;100.00
73101;BME280;61288;53.446;-2.266;2022-12-29T01:16:55;98443.09;;;5.54;100.00
73101;BME280;61288;53.446;-2.266;2022-12-29T01:19:21;98434.56;;;5.54;100.00
73101;BME280;61288;53.446;-2.266;2022-12-29T01:21:47;98451.06;;;5.49;100.00
73101;BME280;61288;53.446;-2.266;2022-12-29T01:24:15;98446.16;;;5.45;100.00
73101;BME280;61288;53.446;-2.266;2022-12-29T01:26:40;98452.28;;;5.42;100.00
73101;BME280;61288;53.446;-2.266;2022-12-29T01:29:06;98444.88;;;5.38;100.00
73101;BME280;61288;53.446;-2.266;2022-12-29T01:31:31;98441.56;;;5.35;100.00
73101;BME280;61288;53.446;-2.266;2022-12-29T01:33:57;98444.28;;;5.32;100.00
73101;BME280;61288;53.446;-2.266;2022-12-29T01:36:23;98450.41;;;5.30;100.00
73101;BME280;61288;53.446;-2.266;2022-12-29T01:38:49;98450.59;;;5.27;100.00
73101;BME280;61288;53.446;-2.266;2022-12-29T01:41:15;98449.84;;;5.25;100.00
73101;BME280;61288;53.446;-2.266;2022-12-29T01:43:44;98456.81;;;5.23;100.00
73101;BME280;61288;53.446;-2.266;2022-12-29T01:49:19;98455.38;;;5.17;100.00
73101;BME280;61288;53.446;-2.266;2022-12-29T01:51:57;98468.31;;;5.15;100.00
73101;BME280;61288;53.446;-2.266;2022-12-29T01:54:28;98470.13;;;5.13;100.00
73101;BME280;61288;53.446;-2.266;2022-12-29T01:56:57;98458.97;;;5.14;100.00
73101;BME280;61288;53.446;-2.266;2022-12-29T01:59:29;98470.13;;;5.13;100.00
73101;BME280;61288;53.446;-2.266;2022-12-29T02:01:56;98479.50;;;5.14;100.00
73101;BME280;61288;53.446;-2.266;2022-12-29T02:04:24;98489.78;;;5.14;100.00
73101;BME280;61288;53.446;-2.266;2022-12-29T02:06:53;98484.53;;;5.16;100.00
73101;BME280;61288;53.446;-2.266;2022-12-29T02:09:21;98491.44;;;5.15;100.00
73101;BME280;61288;53.446;-2.266;2022-12-29T02:11:49;98490.53;;;5.16;100.00
73101;BME280;61288;53.446;-2.266;2022-12-29T02:14:16;98500.78;;;5.16;100.00
73101;BME280;61288;53.446;-2.266;2022-12-29T02:17:08;98503.34;;;5.16;100.00
73101;BME280;61288;53.446;-2.266;2022-12-29T02:44:31;98551.28;;;5.16;100.00
73101;BME280;61288;53.446;-2.266;2022-12-29T02:47:00;98543.59;;;5.16;100.00
73101;BME280;61288;53.446;-2.266;2022-12-29T02:49:30;98551.28;;;5.16;100.00
73101;BME280;61288;53.446;-2.266;2022-12-29T02:52:14;98552.13;;;5.16;100.00
73101;BME280;61288;53.446;-2.266;2022-12-29T02:54:41;98553.03;;;5.15;100.00
73101;BME280;61288;53.446;-2.266;2022-12-29T03:00:00;98562.41;;;5.16;100.00
73101;BME280;61288;53.446;-2.266;2022-12-29T03:13:11;98590.47;;;5.19;100.00
73101;BME280;61288;53.446;-2.266;2022-12-29T03:16:34;98607.38;;;5.24;100.00
73101;BME280;61288;53.446;-2.266;2022-12-29T03:19:08;98607.28;;;5.25;100.00
73101;BME280;61288;53.446;-2.266;2022-12-29T03:21:57;98604.66;;;5.27;100.00
73101;BME280;61288;53.446;-2.266;2022-12-29T03:24:50;98614.00;;;5.28;100.00
73101;BME280;61288;53.446;-2.266;2022-12-29T03:27:50;98620.88;;;5.27;100.00
73101;BME280;61288;53.446;-2.266;2022-12-29T03:30:19;98610.53;;;5.29;100.00
73101;BME280;61288;53.446;-2.266;2022-12-29T03:32:54;98623.31;;;5.30;100.00
73101;BME280;61288;53.446;-2.266;2022-12-29T03:35:28;98634.38;;;5.31;100.00
73101;BME280;61288;53.446;-2.266;2022-12-29T03:38:05;98633.59;;;5.30;100.00
73101;BME280;61288;53.446;-2.266;2022-12-29T03:40:39;98643.00;;;5.30;100.00
73101;BME280;61288;53.446;-2.266;2022-12-29T03:43:09;98639.69;;;5.28;100.00
73101;BME280;61288;53.446;-2.266;2022-12-29T03:45:37;98648.31;;;5.27;100.00
73101;BME280;61288;53.446;-2.266;2022-12-29T03:48:03;98657.66;;;5.28;100.00
73101;BME280;61288;53.446;-2.266;2022-12-29T03:50:29;98654.25;;;5.27;100.00
73101;BME280;61288;53.446;-2.266;2022-12-29T03:52:55;98661.81;;;5.30;100.00
73101;BME280;61288;53.446;-2.266;2022-12-29T03:55:21;98666.88;;;5.32;100.00
73101;BME280;61288;53.446;-2.266;2022-12-29T03:57:46;98668.53;;;5.33;100.00
73101;BME280;61288;53.446;-2.266;2022-12-29T04:00:12;98687.25;;;5.35;100.00
73101;BME280;61288;53.446;-2.266;2022-12-29T04:03:00;98683.44;;;5.42;100.00
73101;BME280;61288;53.446;-2.266;2022-12-29T04:05:26;98675.09;;;5.39;100.00
73101;BME280;61288;53.446;-2.266;2022-12-29T04:07:52;98681.94;;;5.38;100.00
73101;BME280;61288;53.446;-2.266;2022-12-29T04:10:17;98693.06;;;5.39;100.00
73101;BME280;61288;53.446;-2.266;2022-12-29T04:12:43;98704.09;;;5.41;100.00
73101;BME280;61288;53.446;-2.266;2022-12-29T04:15:11;98703.25;;;5.40;100.00
73101;BME280;61288;53.446;-2.266;2022-12-29T04:17:36;98710.13;;;5.40;100.00
73101;BME280;61288;53.446;-2.266;2022-12-29T04:20:02;98713.53;;;5.40;100.00
73101;BME280;61288;53.446;-2.266;2022-12-29T04:22:46;98724.66;;;5.41;100.00
73101;BME280;61288;53.446;-2.266;2022-12-29T04:25:16;98731.59;;;5.39;100.00
73101;BME280;61288;53.446;-2.266;2022-12-29T04:27:42;98733.16;;;5.41;100.00
73101;BME280;61288;53.446;-2.266;2022-12-29T04:30:10;98728.88;;;5.42;100.00
73101;BME280;61288;53.446;-2.266;2022-12-29T04:32:36;98742.63;;;5.41;100.00
73101;BME280;61288;53.446;-2.266;2022-12-29T04:35:01;98746.84;;;5.42;100.00
73101;BME280;61288;53.446;-2.266;2022-12-29T04:37:28;98740.81;;;5.43;100.00
73101;BME280;61288;53.446;-2.266;2022-12-29T04:39:55;98757.88;;;5.44;100.00
73101;BME280;61288;53.446;-2.266;2022-12-29T04:42:20;98749.41;;;5.42;100.00
73101;BME280;61288;53.446;-2.266;2022-12-29T04:44:46;98756.38;;;5.40;100.00
73101;BME280;61288;53.446;-2.266;2022-12-29T04:47:11;98762.47;;;5.37;100.00
73101;BME280;61288;53.446;-2.266;2022-12-29T04:49:37;98756.53;;;5.37;100.00
73101;BME280;61288;53.446;-2.266;2022-12-29T04:52:05;98770.94;;;5.39;100.00
73101;BME280;61288;53.446;-2.266;2022-12-29T04:54:30;98765.00;;;5.39;99.73
73101;BME280;61288;53.446;-2.266;2022-12-29T04:56:57;98779.56;;;5.38;99.92
73101;BME280;61288;53.446;-2.266;2022-12-29T04:59:22;98790.06;;;5.33;100.00
73101;BME280;61288;53.446;-2.266;2022-12-29T05:01:48;98796.88;;;5.34;100.00
73101;BME280;61288;53.446;-2.266;2022-12-29T05:04:13;98793.47;;;5.34;99.56
73101;BME280;61288;53.446;-2.266;2022-12-29T05:06:39;98795.22;;;5.33;100.00
73101;BME280;61288;53.446;-2.266;2022-12-29T05:09:04;98805.34;;;5.37;98.43
73101;BME280;61288;53.446;-2.266;2022-12-29T05:11:30;98810.38;;;5.38;98.11
73101;BME280;61288;53.446;-2.266;2022-12-29T05:13:57;98809.63;;;5.36;98.82
73101;BME280;61288;53.446;-2.266;2022-12-29T05:16:22;98824.81;;;5.41;97.32
73101;BME280;61288;53.446;-2.266;2022-12-29T05:18:48;98826.38;;;5.43;96.54
73101;BME280;61288;53.446;-2.266;2022-12-29T05:21:13;98839.06;;;5.46;96.16
73101;BME280;61288;53.446;-2.266;2022-12-29T05:23:39;98839.97;;;5.45;96.11
73101;BME280;61288;53.446;-2.266;2022-12-29T05:26:05;98845.13;;;5.45;95.34
73101;BME280;61288;53.446;-2.266;2022-12-29T05:28:31;98858.13;;;5.42;95.52
73101;BME280;61288;53.446;-2.266;2022-12-29T05:33:32;98865.81;;;5.42;95.60
73101;BME280;61288;53.446;-2.266;2022-12-29T05:36:12;98869.44;;;5.38;96.12
73101;BME280;61288;53.446;-2.266;2022-12-29T05:38:41;98875.50;;;5.37;95.98
73101;BME280;61288;53.446;-2.266;2022-12-29T05:41:08;98873.78;;;5.38;95.64
73101;BME280;61288;53.446;-2.266;2022-12-29T05:43:34;98894.06;;;5.42;94.49
73101;BME280;61288;53.446;-2.266;2022-12-29T05:45:59;98897.56;;;5.41;94.98
73101;BME280;61288;53.446;-2.266;2022-12-29T05:48:25;98900.34;;;5.37;94.92
73101;BME280;61288;53.446;-2.266;2022-12-29T05:50:51;98906.56;;;5.32;96.18
73101;BME280;61288;53.446;-2.266;2022-12-29T05:53:17;98895.72;;;5.26;97.00
73101;BME280;61288;53.446;-2.266;2022-12-29T05:55:44;98901.97;;;5.20;98.49
73101;BME280;61288;53.446;-2.266;2022-12-29T05:58:11;98910.81;;;5.14;98.64
73101;BME280;61288;53.446;-2.266;2022-12-29T06:00:36;98910.03;;;5.12;98.90
73101;BME280;61288;53.446;-2.266;2022-12-29T06:03:02;98904.84;;;5.14;97.56
73101;BME280;61288;53.446;-2.266;2022-12-29T06:05:27;98908.16;;;5.16;98.54
73101;BME280;61288;53.446;-2.266;2022-12-29T06:07:53;98910.59;;;5.19;96.28
73101;BME280;61288;53.446;-2.266;2022-12-29T06:10:18;98913.25;;;5.17;97.80
73101;BME280;61288;53.446;-2.266;2022-12-29T06:12:43;98919.28;;;5.16;97.75
73101;BME280;61288;53.446;-2.266;2022-12-29T06:15:10;98921.97;;;5.13;98.45
73101;BME280;61288;53.446;-2.266;2022-12-29T06:17:35;98929.16;;;5.06;98.79
73101;BME280;61288;53.446;-2.266;2022-12-29T06:20:01;98942.13;;;5.03;99.01
73101;BME280;61288;53.446;-2.266;2022-12-29T06:22:27;98940.66;;;4.98;99.37
73101;BME280;61288;53.446;-2.266;2022-12-29T06:24:52;98940.84;;;4.93;99.09
73101;BME280;61288;53.446;-2.266;2022-12-29T06:27:18;98934.97;;;4.91;97.97
73101;BME280;61288;53.446;-2.266;2022-12-29T06:29:43;98942.81;;;4.88;99.50
73101;BME280;61288;53.446;-2.266;2022-12-29T06:32:09;98949.84;;;4.84;99.70
73101;BME280;61288;53.446;-2.266;2022-12-29T06:34:34;98954.19;;;4.82;99.92
73101;BME280;61288;53.446;-2.266;2022-12-29T06:37:00;98959.44;;;4.79;100.00
73101;BME280;61288;53.446;-2.266;2022-12-29T06:39:26;98960.44;;;4.76;100.00
73101;BME280;61288;53.446;-2.266;2022-12-29T06:41:52;98965.63;;;4.75;99.83
73101;BME280;61288;53.446;-2.266;2022-12-29T06:44:20;98972.34;;;4.77;99.11
73101;BME280;61288;53.446;-2.266;2022-12-29T06:46:45;98965.47;;;4.78;99.15
73101;BME280;61288;53.446;-2.266;2022-12-29T06:49:11;98974.97;;;4.76;99.51
73101;BME280;61288;53.446;-2.266;2022-12-29T06:51:36;98969.72;;;4.79;98.92
73101;BME280;61288;53.446;-2.266;2022-12-29T06:54:01;98978.13;;;4.83;98.61
73101;BME280;61288;53.446;-2.266;2022-12-29T06:56:27;98985.63;;;4.87;98.27
73101;BME280;61288;53.446;-2.266;2022-12-29T06:58:53;98992.28;;;4.91;97.96
73101;BME280;61288;53.446;-2.266;2022-12-29T07:01:20;99006.44;;;5.00;97.06
73101;BME280;61288;53.446;-2.266;2022-12-29T07:03:46;99008.25;;;4.98;98.79
73101;BME280;61288;53.446;-2.266;2022-12-29T07:06:12;99016.72;;;5.00;97.77
73101;BME280;61288;53.446;-2.266;2022-12-29T07:08:37;99019.06;;;5.05;97.52
73101;BME280;61288;53.446;-2.266;2022-12-29T07:11:04;99025.94;;;5.04;98.14
73101;BME280;61288;53.446;-2.266;2022-12-29T07:13:29;99020.84;;;5.03;98.19
73101;BME280;61288;53.446;-2.266;2022-12-29T07:15:55;99028.66;;;5.01;98.50
73101;BME280;61288;53.446;-2.266;2022-12-29T07:18:20;99029.69;;;4.97;99.46
73101;BME280;61288;53.446;-2.266;2022-12-29T07:20:46;99034.81;;;4.97;98.96
73101;BME280;61288;53.446;-2.266;2022-12-29T07:23:11;99036.53;;;4.97;99.18
73101;BME280;61288;53.446;-2.266;2022-12-29T07:25:37;99045.19;;;4.94;99.65
73101;BME280;61288;53.446;-2.266;2022-12-29T07:28:03;99037.50;;;4.94;98.90
73101;BME280;61288;53.446;-2.266;2022-12-29T07:30:28;99046.94;;;4.94;99.98
73101;BME280;61288;53.446;-2.266;2022-12-29T07:32:54;99051.03;;;4.98;98.98
73101;BME280;61288;53.446;-2.266;2022-12-29T07:35:19;99062.91;;;5.00;98.26
73101;BME280;61288;53.446;-2.266;2022-12-29T07:37:45;99063.88;;;4.98;98.71
73101;BME280;61288;53.446;-2.266;2022-12-29T07:40:10;99074.00;;;5.01;98.15
73101;BME280;61288;53.446;-2.266;2022-12-29T07:42:36;99065.41;;;5.02;97.71
73101;BME280;61288;53.446;-2.266;2022-12-29T07:45:02;99074.00;;;5.01;97.93
73101;BME280;61288;53.446;-2.266;2022-12-29T07:47:28;99079.13;;;5.01;98.05
73101;BME280;61288;53.446;-2.266;2022-12-29T07:49:53;99075.88;;;4.97;98.68
73101;BME280;61288;53.446;-2.266;2022-12-29T07:52:19;99078.09;;;5.05;97.08
73101;BME280;61288;53.446;-2.266;2022-12-29T07:54:44;99085.81;;;5.05;97.63
73101;BME280;61288;53.446;-2.266;2022-12-29T07:57:10;99088.44;;;5.03;97.97
73101;BME280;61288;53.446;-2.266;2022-12-29T07:59:35;99104.00;;;5.00;98.74
73101;BME280;61288;53.446;-2.266;2022-12-29T08:02:01;99106.28;;;5.06;97.05
73101;BME280;61288;53.446;-2.266;2022-12-29T08:04:27;99112.94;;;5.11;95.59
73101;BME280;61288;53.446;-2.266;2022-12-29T08:06:52;99108.53;;;5.14;94.54
73101;BME280;61288;53.446;-2.266;2022-12-29T08:09:17;99118.53;;;5.20;93.47
73101;BME280;61288;53.446;-2.266;2022-12-29T08:11:44;99112.34;;;5.25;92.56
73101;BME280;61288;53.446;-2.266;2022-12-29T08:14:09;99112.63;;;5.18;93.49
73101;BME280;61288;53.446;-2.266;2022-12-29T08:16:35;99122.22;;;5.13;92.89
73101;BME280;61288;53.446;-2.266;2022-12-29T08:19:01;99129.44;;;5.05;93.42
73101;BME280;61288;53.446;-2.266;2022-12-29T08:21:27;99142.53;;;4.99;94.47
73101;BME280;61288;53.446;-2.266;2022-12-29T08:23:53;99139.16;;;4.98;93.43
73101;BME280;61288;53.446;-2.266;2022-12-29T08:26:19;99146.97;;;4.95;94.18
73101;BME280;61288;53.446;-2.266;2022-12-29T08:28:45;99154.94;;;4.89;94.67
73101;BME280;61288;53.446;-2.266;2022-12-29T08:31:10;99154.09;;;4.88;93.96
73101;BME280;61288;53.446;-2.266;2022-12-29T08:33:36;99161.94;;;4.85;94.28
73101;BME280;61288;53.446;-2.266;2022-12-29T08:36:03;99165.63;;;4.78;95.74
73101;BME280;61288;53.446;-2.266;2022-12-29T08:38:29;99172.56;;;4.76;95.53
73101;BME280;61288;53.446;-2.266;2022-12-29T08:40:57;99182.00;;;4.75;96.17
73101;BME280;61288;53.446;-2.266;2022-12-29T08:43:23;99188.22;;;4.70;96.41
73101;BME280;61288;53.446;-2.266;2022-12-29T08:45:49;99184.09;;;4.66;96.35
73101;BME280;61288;53.446;-2.266;2022-12-29T08:48:14;99179.22;;;4.59;96.12
73101;BME280;61288;53.446;-2.266;2022-12-29T08:50:44;99183.63;;;4.56;96.37
73101;BME280;61288;53.446;-2.266;2022-12-29T08:53:09;99188.00;;;4.54;96.72
73101;BME280;61288;53.446;-2.266;2022-12-29T08:55:35;99195.91;;;4.49;96.71
73101;BME280;61288;53.446;-2.266;2022-12-29T08:58:01;99197.75;;;4.45;97.22
73101;BME280;61288;53.446;-2.266;2022-12-29T09:00:26;99190.94;;;4.44;96.87
73101;BME280;61288;53.446;-2.266;2022-12-29T09:02:52;99203.03;;;4.41;97.82
73101;BME280;61288;53.446;-2.266;2022-12-29T09:05:17;99202.22;;;4.40;97.67
73101;BME280;61288;53.446;-2.266;2022-12-29T09:07:43;99194.56;;;4.39;98.33
73101;BME280;61288;53.446;-2.266;2022-12-29T09:10:09;99194.66;;;4.37;97.48
73101;BME280;61288;53.446;-2.266;2022-12-29T09:12:34;99202.34;;;4.37;98.03
73101;BME280;61288;53.446;-2.266;2022-12-29T09:15:00;99200.78;;;4.33;98.89
73101;BME280;61288;53.446;-2.266;2022-12-29T09:17:25;99202.38;;;4.36;97.66
73101;BME280;61288;53.446;-2.266;2022-12-29T09:20:09;99207.59;;;4.34;97.60
73101;BME280;61288;53.446;-2.266;2022-12-29T09:22:35;99205.03;;;4.34;96.55
73101;BME280;61288;53.446;-2.266;2022-12-29T09:25:01;99211.88;;;4.33;96.37
73101;BME280;61288;53.446;-2.266;2022-12-29T09:27:27;99215.22;;;4.36;95.43
73101;BME280;61288;53.446;-2.266;2022-12-29T09:29:52;99224.66;;;4.35;95.76
73101;BME280;61288;53.446;-2.266;2022-12-29T09:32:18;99234.78;;;4.38;94.91
73101;BME280;61288;53.446;-2.266;2022-12-29T09:34:43;99235.69;;;4.37;94.75
73101;BME280;61288;53.446;-2.266;2022-12-29T09:37:08;99235.47;;;4.42;93.19
73101;BME280;61288;53.446;-2.266;2022-12-29T09:39:34;99247.25;;;4.47;92.19
73101;BME280;61288;53.446;-2.266;2022-12-29T09:47:17;99253.16;;;4.50;92.73
73101;BME280;61288;53.446;-2.266;2022-12-29T09:49:48;99251.22;;;4.55;91.00
73101;BME280;61288;53.446;-2.266;2022-12-29T09:52:30;99253.69;;;4.58;90.21
73101;BME280;61288;53.446;-2.266;2022-12-29T09:54:59;99268.91;;;4.62;88.61
73101;BME280;61288;53.446;-2.266;2022-12-29T09:57:31;99263.59;;;4.67;88.73
73101;BME280;61288;53.446;-2.266;2022-12-29T10:00:05;99268.53;;;4.72;87.95
73101;BME280;61288;53.446;-2.266;2022-12-29T10:02:44;99270.28;;;4.71;88.82
73101;BME280;61288;53.446;-2.266;2022-12-29T10:05:30;99265.78;;;4.76;87.52
73101;BME280;61288;53.446;-2.266;2022-12-29T10:11:52;99278.25;;;4.86;87.14
73101;BME280;61288;53.446;-2.266;2022-12-29T10:14:33;99284.81;;;4.93;86.92
73101;BME280;61288;53.446;-2.266;2022-12-29T10:23:01;99298.72;;;5.10;85.40
73101;BME280;61288;53.446;-2.266;2022-12-29T10:25:40;99284.59;;;5.20;85.47
73101;BME280;61288;53.446;-2.266;2022-12-29T10:28:18;99276.41;;;5.32;83.50
73101;BME280;61288;53.446;-2.266;2022-12-29T10:30:48;99277.72;;;5.41;84.20
73101;BME280;61288;53.446;-2.266;2022-12-29T10:33:22;99286.72;;;5.52;82.84
73101;BME280;61288;53.446;-2.266;2022-12-29T10:35:51;99284.94;;;5.54;84.06
73101;BME280;61288;53.446;-2.266;2022-12-29T10:43:52;99292.19;;;5.64;82.57
73101;BME280;61288;53.446;-2.266;2022-12-29T10:46:32;99299.91;;;5.64;81.67
73101;BME280;61288;53.446;-2.266;2022-12-29T10:48:59;99300.72;;;5.65;81.75
73101;BME280;61288;53.446;-2.266;2022-12-29T10:51:30;99298.78;;;5.70;80.85
73101;BME280;61288;53.446;-2.266;2022-12-29T10:57:20;99292.59;;;5.74;81.50
73101;BME280;61288;53.446;-2.266;2022-12-29T10:59:49;99294.41;;;5.72;80.78
73101;BME280;61288;53.446;-2.266;2022-12-29T11:07:41;99285.84;;;5.53;82.11
73101;BME280;61288;53.446;-2.266;2022-12-29T11:10:42;99284.72;;;5.58;80.69
73101;BME280;61288;53.446;-2.266;2022-12-29T11:13:17;99288.75;;;5.64;80.94
73101;BME280;61288;53.446;-2.266;2022-12-29T11:15:48;99283.75;;;5.82;80.08
73101;BME280;61288;53.446;-2.266;2022-12-29T11:20:56;99279.84;;;5.92;80.30
73101;BME280;61288;53.446;-2.266;2022-12-29T11:23:31;99288.16;;;5.99;79.52
73101;BME280;61288;53.446;-2.266;2022-12-29T11:26:21;99287.28;;;5.98;79.85
73101;BME280;61288;53.446;-2.266;2022-12-29T11:31:44;99288.66;;;6.07;78.92
73101;BME280;61288;53.446;-2.266;2022-12-29T11:34:24;99298.72;;;6.12;78.41
73101;BME280;61288;53.446;-2.266;2022-12-29T11:36:53;99293.03;;;6.24;78.57
73101;BME280;61288;53.446;-2.266;2022-12-29T11:39:34;99287.34;;;6.36;78.59
73101;BME280;61288;53.446;-2.266;2022-12-29T11:42:03;99291.50;;;6.39;77.79
73101;BME280;61288;53.446;-2.266;2022-12-29T11:44:36;99291.72;;;6.34;77.32
73101;BME280;61288;53.446;-2.266;2022-12-29T11:47:03;99293.72;;;6.28;79.73
73101;BME280;61288;53.446;-2.266;2022-12-29T11:49:30;99290.53;;;6.22;77.21
73101;BME280;61288;53.446;-2.266;2022-12-29T11:51:56;99293.47;;;6.15;78.01
73101;BME280;61288;53.446;-2.266;2022-12-29T11:54:26;99294.44;;;6.12;78.89
73101;BME280;61288;53.446;-2.266;2022-12-29T11:56:53;99286.78;;;6.11;77.96
73101;BME280;61288;53.446;-2.266;2022-12-29T12:02:14;99291.50;;;6.01;78.59
73101;BME280;61288;53.446;-2.266;2022-12-29T12:04:43;99290.81;;;5.96;80.11
73101;BME280;61288;53.446;-2.266;2022-12-29T12:07:19;99299.53;;;5.93;78.35
73101;BME280;61288;53.446;-2.266;2022-12-29T12:10:00;99299.34;;;5.98;77.79
73101;BME280;61288;53.446;-2.266;2022-12-29T12:14:58;99294.19;;;5.98;77.62
73101;BME280;61288;53.446;-2.266;2022-12-29T12:17:37;99293.63;;;5.91;78.70
73101;BME280;61288;53.446;-2.266;2022-12-29T12:20:22;99315.13;;;5.88;79.09
73101;BME280;61288;53.446;-2.266;2022-12-29T12:23:16;99305.97;;;5.83;80.34
73101;BME280;61288;53.446;-2.266;2022-12-29T12:26:21;99306.94;;;5.80;79.11
73101;BME280;61288;53.446;-2.266;2022-12-29T12:31:27;99317.22;;;5.80;79.28
73101;BME280;61288;53.446;-2.266;2022-12-29T12:34:03;99320.63;;;5.81;78.25
73101;BME280;61288;53.446;-2.266;2022-12-29T12:36:46;99315.72;;;5.74;80.12
73101;BME280;61288;53.446;-2.266;2022-12-29T12:39:27;99322.69;;;5.72;79.16
73101;BME280;61288;53.446;-2.266;2022-12-29T12:47:50;99320.56;;;5.82;79.26
73101;BME280;61288;53.446;-2.266;2022-12-29T12:50:41;99332.38;;;5.86;78.15
73101;BME280;61288;53.446;-2.266;2022-12-29T12:53:41;99335.44;;;5.95;77.59
73101;BME280;61288;53.446;-2.266;2022-12-29T13:20:50;99336.97;;;6.77;74.52
73101;BME280;61288;53.446;-2.266;2022-12-29T13:23:59;99354.47;;;6.88;74.82
73101;BME280;61288;53.446;-2.266;2022-12-29T13:26:37;99357.59;;;6.94;75.17
73101;BME280;61288;53.446;-2.266;2022-12-29T13:29:31;99355.25;;;6.90;73.27
73101;BME280;61288;53.446;-2.266;2022-12-29T13:38:03;99367.06;;;6.94;74.14
73101;BME280;61288;53.446;-2.266;2022-12-29T13:40:36;99387.19;;;6.86;73.49
73101;BME280;61288;53.446;-2.266;2022-12-29T13:43:05;99374.94;;;6.72;74.27
73101;BME280;61288;53.446;-2.266;2022-12-29T13:45:32;99370.38;;;6.59;75.29
73101;BME280;61288;53.446;-2.266;2022-12-29T13:48:01;99377.63;;;6.51;75.11
73101;BME280;61288;53.446;-2.266;2022-12-29T13:50:29;99399.31;;;6.45;75.04
73101;BME280;61288;53.446;-2.266;2022-12-29T13:53:23;99387.47;;;6.41;74.02
73101;BME280;61288;53.446;-2.266;2022-12-29T13:56:05;99392.81;;;6.36;74.45
73101;BME280;61288;53.446;-2.266;2022-12-29T13:58:41;99395.38;;;6.36;74.11
73101;BME280;61288;53.446;-2.266;2022-12-29T14:04:00;99405.19;;;6.28;74.34
73101;BME280;61288;53.446;-2.266;2022-12-29T14:06:35;99392.47;;;6.25;74.52
73101;BME280;61288;53.446;-2.266;2022-12-29T14:09:38;99393.41;;;6.22;74.71
73101;BME280;61288;53.446;-2.266;2022-12-29T14:11:53;99405.31;;;6.25;74.92
73101;BME280;61288;53.446;-2.266;2022-12-29T14:14:33;99404.44;;;6.26;73.89
73101;BME280;61288;53.446;-2.266;2022-12-29T14:17:11;99401.84;;;6.26;75.08
73101;BME280;61288;53.446;-2.266;2022-12-29T14:19:40;99405.31;;;6.25;75.61
73101;BME280;61288;53.446;-2.266;2022-12-29T14:22:07;99407.72;;;6.30;73.32
73101;BME280;61288;53.446;-2.266;2022-12-29T14:34:52;99430.66;;;6.34;73.65
73101;BME280;61288;53.446;-2.266;2022-12-29T14:37:28;99435.09;;;6.31;73.83
73101;BME280;61288;53.446;-2.266;2022-12-29T14:42:44;99443.59;;;6.33;73.73
73101;BME280;61288;53.446;-2.266;2022-12-29T14:47:42;99468.47;;;6.32;74.20
73101;BME280;61288;53.446;-2.266;2022-12-29T14:50:16;99463.91;;;6.39;73.12
73101;BME280;61288;53.446;-2.266;2022-12-29T14:52:47;99467.03;;;6.46;72.12
73101;BME280;61288;53.446;-2.266;2022-12-29T14:58:07;99484.94;;;6.49;73.24
73101;BME280;61288;53.446;-2.266;2022-12-29T15:00:39;99480.56;;;6.51;72.98
73101;BME280;61288;53.446;-2.266;2022-12-29T15:05:56;99496.13;;;6.48;73.23
73101;BME280;61288;53.446;-2.266;2022-12-29T15:08:32;99507.56;;;6.41;74.10
73101;BME280;61288;53.446;-2.266;2022-12-29T15:11:06;99515.63;;;6.33;74.83
73101;BME280;61288;53.446;-2.266;2022-12-29T15:13:38;99522.69;;;6.28;75.45
73101;BME280;61288;53.446;-2.266;2022-12-29T15:16:17;99523.72;;;6.24;74.06
73101;BME280;61288;53.446;-2.266;2022-12-29T15:18:45;99538.56;;;6.17;74.65
73101;BME280;61288;53.446;-2.266;2022-12-29T15:21:12;99540.47;;;6.12;75.83
73101;BME280;61288;53.446;-2.266;2022-12-29T15:23:39;99536.31;;;6.09;75.44
73101;BME280;61288;53.446;-2.266;2022-12-29T15:26:06;99547.28;;;6.13;73.71
73101;BME280;61288;53.446;-2.266;2022-12-29T15:28:42;99548.28;;;6.10;75.63
73101;BME280;61288;53.446;-2.266;2022-12-29T15:31:22;99561.25;;;6.07;74.35
73101;BME280;61288;53.446;-2.266;2022-12-29T15:33:54;99561.44;;;6.02;74.42
73101;BME280;61288;53.446;-2.266;2022-12-29T15:36:27;99566.06;;;5.92;74.77
73101;BME280;61288;53.446;-2.266;2022-12-29T15:38:53;99567.22;;;5.85;75.60
73101;BME280;61288;53.446;-2.266;2022-12-29T15:41:29;99578.81;;;5.73;76.30
73101;BME280;61288;53.446;-2.266;2022-12-29T15:46:30;99579.41;;;5.58;76.67